createdAt,value
2019-04-28T00:01:05.153Z,99.90
2019-04-28T00:03:34.490Z,99.90
2019-04-28T00:06:03.859Z,99.90
2019-04-28T00:08:33.196Z,99.90
2019-04-28T00:11:02.672Z,99.90
2019-04-28T00:13:32.186Z,99.90
2019-04-28T00:16:01.839Z,99.90
2019-04-28T00:18:31.669Z,99.90
2019-04-28T00:21:22.976Z,99.90
2019-04-28T00:24:11.398Z,99.90
2019-04-28T00:26:48.696Z,99.90
2019-04-28T00:29:18.031Z,99.90
2019-04-28T00:31:47.399Z,99.90
2019-04-28T00:34:16.740Z,99.90
2019-04-28T00:36:47.738Z,99.90
2019-04-28T00:39:17.080Z,99.90
2019-04-28T00:41:46.467Z,99.90
2019-04-28T00:44:16.604Z,99.90
2019-04-28T00:46:45.972Z,99.90
2019-04-28T00:49:16.880Z,99.90
2019-04-28T00:51:46.277Z,99.90
2019-04-28T00:54:15.614Z,99.90
2019-04-28T00:56:44.961Z,99.90
2019-04-28T00:59:14.323Z,99.90
2019-04-28T01:01:52.813Z,99.90
2019-04-28T01:04:22.151Z,99.90
2019-04-28T01:06:51.998Z,99.90
2019-04-28T01:09:22.079Z,99.90
2019-04-28T01:11:53.464Z,99.90
2019-04-28T01:14:22.524Z,99.90
2019-04-28T01:16:59.873Z,99.90
2019-04-28T01:19:32.684Z,99.90
2019-04-28T01:22:12.260Z,99.90
2019-04-28T01:24:41.835Z,99.90
2019-04-28T01:27:50.303Z,99.90
2019-04-28T01:30:52.054Z,99.90
2019-04-28T01:33:40.671Z,99.90
2019-04-28T01:36:10.416Z,99.90
2019-04-28T01:38:40.286Z,99.90
2019-04-28T01:41:09.896Z,99.90
2019-04-28T01:43:39.332Z,99.90
2019-04-28T01:46:10.155Z,99.90
2019-04-28T01:48:39.895Z,99.90
2019-04-28T01:51:09.572Z,99.90
2019-04-28T01:53:39.611Z,99.90
2019-04-28T01:56:10.607Z,99.90
2019-04-28T01:58:40.430Z,99.90
2019-04-28T02:01:10.605Z,99.90
2019-04-28T02:03:40.513Z,99.90
2019-04-28T02:06:10.204Z,99.90
2019-04-28T02:08:39.984Z,99.90
2019-04-28T02:11:10.102Z,99.90
2019-04-28T02:13:39.943Z,99.90
2019-04-28T02:16:09.795Z,99.90
2019-04-28T02:18:39.889Z,99.90
2019-04-28T02:21:39.459Z,99.90
2019-04-28T02:24:26.331Z,99.90
2019-04-28T02:26:55.899Z,99.90
2019-04-28T02:29:25.261Z,99.90
2019-04-28T02:31:54.614Z,99.90
2019-04-28T02:34:24.048Z,99.90
2019-04-28T02:36:53.991Z,99.90
2019-04-28T02:39:23.574Z,99.90
2019-04-28T02:41:52.922Z,99.90
2019-04-28T02:44:23.625Z,99.90
2019-04-28T02:46:53.124Z,99.90
2019-04-28T02:49:30.524Z,99.90
2019-04-28T02:52:24.156Z,99.90
2019-04-28T02:54:53.541Z,99.90
2019-04-28T02:57:22.864Z,99.90
2019-04-28T02:59:52.212Z,99.90
2019-04-28T03:02:21.700Z,99.90
2019-04-28T03:04:51.077Z,99.90
2019-04-28T03:07:21.636Z,99.90
2019-04-28T03:09:52.265Z,99.90
2019-04-28T03:12:21.910Z,99.90
2019-04-28T03:14:51.243Z,99.90
2019-04-28T03:17:21.046Z,99.90
2019-04-28T03:19:51.733Z,99.90
2019-04-28T03:22:21.282Z,99.90
2019-04-28T03:24:52.269Z,99.90
2019-04-28T03:27:32.141Z,99.90
2019-04-28T03:30:07.916Z,99.90
2019-04-28T03:32:53.010Z,99.90
2019-04-28T03:35:15.665Z,99.90
2019-04-28T03:37:45.017Z,99.90
2019-04-28T03:40:14.368Z,99.90
2019-04-28T03:42:43.756Z,99.90
2019-04-28T03:45:21.094Z,99.90
2019-04-28T03:47:50.997Z,99.90
2019-04-28T03:50:20.490Z,99.90
2019-04-28T03:52:51.179Z,99.90
2019-04-28T03:55:21.273Z,99.90
2019-04-28T03:57:51.105Z,99.90
2019-04-28T04:00:22.022Z,99.90
2019-04-28T04:02:51.672Z,99.90
2019-04-28T04:05:21.116Z,99.90
2019-04-28T04:07:50.766Z,99.90
2019-04-28T04:10:32.431Z,99.90
2019-04-28T04:13:10.988Z,99.90
2019-04-28T04:15:50.541Z,99.90
2019-04-28T04:18:24.563Z,99.90
2019-04-28T04:20:53.944Z,99.90
2019-04-28T04:23:23.580Z,99.90
2019-04-28T04:25:53.046Z,99.90
2019-04-28T04:28:22.447Z,99.90
2019-04-28T04:30:51.823Z,99.90
2019-04-28T04:33:21.280Z,99.90
2019-04-28T04:35:51.656Z,99.90
2019-04-28T04:38:21.892Z,99.90
2019-04-28T04:40:51.594Z,99.90
2019-04-28T04:43:23.313Z,99.90
2019-04-28T04:45:54.806Z,99.90
2019-04-28T04:48:24.201Z,99.90
2019-04-28T04:50:53.589Z,99.90
2019-04-28T04:53:22.988Z,99.90
2019-04-28T04:55:52.732Z,99.90
2019-04-28T04:58:22.284Z,99.90
2019-04-28T05:01:10.491Z,99.90
2019-04-28T05:03:41.050Z,99.90
2019-04-28T05:06:29.687Z,99.90
2019-04-28T05:08:59.919Z,99.90
2019-04-28T05:11:30.011Z,99.90
2019-04-28T05:13:59.726Z,99.90
2019-04-28T05:16:29.811Z,99.90
2019-04-28T05:19:00.095Z,99.90
2019-04-28T05:21:33.120Z,99.90
2019-04-28T05:24:30.378Z,99.90
2019-04-28T05:26:59.791Z,99.90
2019-04-28T05:29:30.676Z,99.90
2019-04-28T05:32:03.397Z,99.90
2019-04-28T05:34:31.351Z,99.90
2019-04-28T05:37:00.836Z,99.90
2019-04-28T05:39:30.223Z,99.90
2019-04-28T05:42:00.875Z,99.90
2019-04-28T05:44:32.092Z,99.90
2019-04-28T05:47:01.453Z,99.90
2019-04-28T05:49:40.947Z,99.90
2019-04-28T05:52:29.922Z,99.90
2019-04-28T05:55:05.972Z,99.90
2019-04-28T05:57:40.719Z,99.90
2019-04-28T06:00:21.414Z,99.90
2019-04-28T06:02:56.553Z,99.90
2019-04-28T06:05:22.035Z,99.90
2019-04-28T06:08:12.495Z,99.90
2019-04-28T06:10:41.926Z,99.90
2019-04-28T06:13:11.300Z,99.90
2019-04-28T06:15:40.686Z,99.90
2019-04-28T06:18:10.557Z,99.90
2019-04-28T06:20:40.674Z,99.90
2019-04-28T06:23:10.164Z,99.90
2019-04-28T06:25:39.583Z,99.90
2019-04-28T06:28:08.959Z,99.90
2019-04-28T06:30:38.355Z,99.90
2019-04-28T06:33:08.496Z,99.90
2019-04-28T06:35:38.056Z,99.90
2019-04-28T06:38:07.431Z,99.90
2019-04-28T06:40:36.851Z,99.90
2019-04-28T06:43:06.284Z,99.90
2019-04-28T06:45:38.051Z,99.90
2019-04-28T06:48:07.443Z,99.90
2019-04-28T06:50:36.810Z,99.90
2019-04-28T06:53:06.277Z,99.90
2019-04-28T06:55:35.639Z,99.90
2019-04-28T06:58:05.043Z,99.90
2019-04-28T07:00:34.408Z,99.90
2019-04-28T07:03:03.805Z,99.90
2019-04-28T07:05:33.199Z,99.90
2019-04-28T07:08:02.582Z,99.90
2019-04-28T07:10:31.964Z,99.90
2019-04-28T07:13:01.353Z,99.90
2019-04-28T07:15:30.714Z,99.90
2019-04-28T07:18:00.111Z,99.90
2019-04-28T07:20:51.515Z,99.90
2019-04-28T07:23:21.805Z,99.90
2019-04-28T07:25:51.182Z,99.90
2019-04-28T07:28:20.750Z,99.90
2019-04-28T07:30:50.112Z,99.90
2019-04-28T07:33:19.527Z,99.90
2019-04-28T07:35:48.899Z,99.90
2019-04-28T07:38:18.303Z,99.90
2019-04-28T07:40:47.702Z,99.90
2019-04-28T07:43:17.087Z,99.90
2019-04-28T07:45:46.447Z,99.90
2019-04-28T07:48:16.079Z,99.90
2019-04-28T07:50:45.480Z,99.90
2019-04-28T07:53:22.795Z,99.90
2019-04-28T07:55:52.155Z,99.90
2019-04-28T07:58:21.657Z,99.90
2019-04-28T08:00:51.415Z,99.90
2019-04-28T08:03:20.842Z,99.90
2019-04-28T08:05:50.210Z,99.90
2019-04-28T08:08:19.608Z,99.90
2019-04-28T08:10:48.970Z,99.90
2019-04-28T08:13:18.375Z,99.90
2019-04-28T08:15:47.756Z,99.90
2019-04-28T08:18:17.127Z,99.90
2019-04-28T08:20:46.515Z,99.90
2019-04-28T08:23:15.891Z,99.90
2019-04-28T08:25:45.306Z,99.90
2019-04-28T08:28:14.684Z,99.90
2019-04-28T08:30:44.084Z,99.90
2019-04-28T08:33:33.232Z,99.90
2019-04-28T08:36:02.110Z,99.90
2019-04-28T08:38:31.488Z,99.90
2019-04-28T08:41:00.891Z,99.90
2019-04-28T08:43:30.271Z,99.90
2019-04-28T08:45:59.671Z,99.90
2019-04-28T08:48:29.047Z,99.90
2019-04-28T08:50:58.443Z,99.90
2019-04-28T08:53:27.874Z,99.90
2019-04-28T08:55:57.264Z,99.90
2019-04-28T08:58:26.695Z,99.90
2019-04-28T09:00:56.376Z,99.90
2019-04-28T09:03:25.738Z,99.90
2019-04-28T09:05:56.031Z,99.90
2019-04-28T09:08:25.416Z,99.90
2019-04-28T09:10:54.812Z,99.90
2019-04-28T09:13:24.179Z,99.90
2019-04-28T09:15:53.613Z,99.90
2019-04-28T09:18:22.951Z,99.90
2019-04-28T09:20:52.344Z,99.90
2019-04-28T09:23:21.718Z,99.90
2019-04-28T09:25:51.127Z,99.90
2019-04-28T09:28:20.515Z,99.90
2019-04-28T09:30:49.907Z,99.90
2019-04-28T09:33:19.279Z,99.90
2019-04-28T09:35:48.671Z,99.90
2019-04-28T09:38:18.053Z,99.90
2019-04-28T09:40:47.446Z,99.90
2019-04-28T09:43:21.663Z,99.90
2019-04-28T09:45:56.535Z,99.90
2019-04-28T09:48:25.911Z,99.90
2019-04-28T09:50:55.320Z,99.90
2019-04-28T09:53:24.690Z,99.90
2019-04-28T09:55:54.103Z,99.90
2019-04-28T09:58:23.479Z,99.90
2019-04-28T10:00:52.883Z,99.90
2019-04-28T10:03:25.101Z,99.90
2019-04-28T10:05:53.306Z,99.90
2019-04-28T10:08:22.683Z,99.90
2019-04-28T10:10:52.099Z,99.90
2019-04-28T10:13:21.477Z,99.90
2019-04-28T10:15:51.382Z,99.90
2019-04-28T10:18:20.763Z,99.90
2019-04-28T10:20:50.182Z,99.90
2019-04-28T10:23:19.550Z,99.90
2019-04-28T10:25:48.981Z,99.90
2019-04-28T10:28:18.351Z,99.90
2019-04-28T10:30:47.752Z,99.90
2019-04-28T10:33:17.131Z,99.90
2019-04-28T10:35:46.527Z,99.90
2019-04-28T10:38:15.904Z,99.90
2019-04-28T10:41:07.855Z,99.90
2019-04-28T10:43:37.230Z,99.90
2019-04-28T10:46:06.686Z,99.90
2019-04-28T10:48:36.072Z,99.90
2019-04-28T10:51:05.462Z,99.90
2019-04-28T10:53:34.843Z,99.90
2019-04-28T10:56:04.260Z,99.90
2019-04-28T10:58:33.635Z,99.90
2019-04-28T11:01:03.039Z,99.90
2019-04-28T11:03:32.440Z,99.90
2019-04-28T11:06:01.798Z,99.90
2019-04-28T11:09:05.195Z,99.90
2019-04-28T11:11:34.611Z,99.90
2019-04-28T11:14:04.092Z,99.90
2019-04-28T11:16:36.483Z,99.90
2019-04-28T11:19:07.856Z,97.10
2019-04-28T11:21:37.254Z,96.00
2019-04-28T11:24:06.686Z,93.70
2019-04-28T11:26:36.084Z,95.20
2019-04-28T11:29:05.467Z,92.00
2019-04-28T11:31:34.871Z,96.60
2019-04-28T11:34:25.185Z,93.10
2019-04-28T11:36:54.569Z,94.90
2019-04-28T11:39:30.786Z,93.80
2019-04-28T11:42:00.227Z,93.10
2019-04-28T11:44:29.603Z,94.70
2019-04-28T11:46:59.003Z,96.10
2019-04-28T11:49:28.371Z,96.70
2019-04-28T11:51:57.768Z,99.90
2019-04-28T11:54:27.168Z,97.80
2019-04-28T11:56:56.663Z,93.40
2019-04-28T11:59:26.060Z,91.20
2019-04-28T12:01:55.427Z,90.50
2019-04-28T12:04:24.827Z,92.40
2019-04-28T12:06:54.195Z,83.30
2019-04-28T12:09:30.059Z,90.20
2019-04-28T12:11:59.923Z,86.60
2019-04-28T12:14:43.991Z,85.40
2019-04-28T12:17:50.780Z,85.90
2019-04-28T12:20:23.015Z,88.80
2019-04-28T12:22:52.419Z,85.20
2019-04-28T12:25:21.822Z,85.10
2019-04-28T12:27:51.228Z,83.00
2019-04-28T12:30:20.647Z,84.50
2019-04-28T12:32:49.975Z,88.30
2019-04-28T12:35:19.371Z,82.60
2019-04-28T12:37:48.752Z,77.00
2019-04-28T12:40:18.171Z,74.80
2019-04-28T12:42:47.547Z,75.90
2019-04-28T12:45:17.148Z,75.70
2019-04-28T12:47:46.526Z,82.40
2019-04-28T12:50:24.310Z,82.40
2019-04-28T12:52:53.688Z,82.80
2019-04-28T12:55:23.078Z,86.90
2019-04-28T12:57:52.462Z,86.70
2019-04-28T13:00:40.907Z,86.40
2019-04-28T13:03:34.033Z,85.70
2019-04-28T13:06:05.906Z,89.30
2019-04-28T13:08:35.612Z,89.90
2019-04-28T13:11:04.993Z,88.60
2019-04-28T13:13:34.374Z,90.40
2019-04-28T13:16:03.740Z,90.30
2019-04-28T13:18:33.150Z,90.60
2019-04-28T13:21:02.517Z,90.10
2019-04-28T13:23:31.887Z,92.90
2019-04-28T13:26:01.303Z,97.20
2019-04-28T13:28:30.697Z,98.50
2019-04-28T13:31:00.095Z,99.90
2019-04-28T13:33:29.516Z,99.90
2019-04-28T13:35:58.906Z,99.90
2019-04-28T13:38:28.275Z,99.90
2019-04-28T13:40:57.672Z,99.90
2019-04-28T13:43:27.059Z,99.90
2019-04-28T13:45:56.435Z,99.90
2019-04-28T13:48:25.842Z,99.90
2019-04-28T13:50:55.203Z,99.90
2019-04-28T13:53:24.563Z,99.90
2019-04-28T13:55:58.479Z,99.90
2019-04-28T13:58:52.895Z,99.90
2019-04-28T14:01:40.086Z,99.90
2019-04-28T14:04:26.392Z,99.90
2019-04-28T14:06:59.110Z,99.90
2019-04-28T14:09:28.487Z,99.90
2019-04-28T14:11:57.885Z,99.90
2019-04-28T14:14:27.263Z,99.90
2019-04-28T14:16:56.705Z,99.90
2019-04-28T14:19:26.031Z,99.90
2019-04-28T14:21:55.427Z,99.90
2019-04-28T14:24:24.799Z,99.90
2019-04-28T14:26:54.234Z,99.90
2019-04-28T14:29:23.596Z,99.90
2019-04-28T14:31:53.017Z,99.90
2019-04-28T14:34:22.356Z,99.90
2019-04-28T14:36:51.752Z,99.90
2019-04-28T14:39:21.163Z,99.90
2019-04-28T14:41:50.551Z,99.90
2019-04-28T14:44:20.015Z,99.90
2019-04-28T14:46:49.425Z,99.90
2019-04-28T14:49:18.782Z,99.90
2019-04-28T14:51:48.174Z,99.90
2019-04-28T14:54:17.573Z,99.90
2019-04-28T14:56:46.957Z,99.90
2019-04-28T14:59:16.318Z,99.90
2019-04-28T15:02:10.480Z,99.90
2019-04-28T15:05:08.098Z,99.90
2019-04-28T15:08:05.453Z,99.90
2019-04-28T15:10:51.980Z,99.90
2019-04-28T15:13:22.306Z,99.90
2019-04-28T15:15:51.882Z,99.90
2019-04-28T15:18:21.246Z,99.90
2019-04-28T15:20:50.655Z,99.90
2019-04-28T15:23:20.003Z,99.90
2019-04-28T15:25:49.400Z,99.90
2019-04-28T15:28:18.787Z,99.90
2019-04-28T15:30:48.159Z,99.90
2019-04-28T15:33:17.547Z,99.90
2019-04-28T15:35:46.922Z,99.90
2019-04-28T15:38:16.319Z,99.90
2019-04-28T15:40:45.691Z,99.90
2019-04-28T15:43:15.086Z,99.90
2019-04-28T15:45:44.475Z,99.90
2019-04-28T15:48:13.862Z,99.90
2019-04-28T15:50:43.241Z,99.90
2019-04-28T15:53:12.941Z,99.90
2019-04-28T15:55:51.379Z,99.90
2019-04-28T15:58:31.795Z,99.90
2019-04-28T16:01:01.368Z,99.90
2019-04-28T16:03:30.758Z,99.90
2019-04-28T16:06:00.310Z,99.90
2019-04-28T16:08:29.724Z,99.90
2019-04-28T16:10:59.217Z,99.90
2019-04-28T16:13:28.603Z,99.90
2019-04-28T16:15:57.976Z,99.80
2019-04-28T16:18:27.372Z,99.90
2019-04-28T16:20:56.739Z,99.90
2019-04-28T16:23:26.158Z,99.90
2019-04-28T16:25:55.522Z,99.90
2019-04-28T16:28:24.928Z,99.90
2019-04-28T16:30:54.304Z,99.90
2019-04-28T16:33:23.695Z,99.90
2019-04-28T16:35:53.072Z,99.90
2019-04-28T16:38:22.455Z,99.90
2019-04-28T16:40:51.855Z,99.90
2019-04-28T16:43:21.251Z,99.90
2019-04-28T16:45:50.623Z,99.90
2019-04-28T16:48:20.037Z,99.90
2019-04-28T16:50:49.406Z,99.90
2019-04-28T16:53:18.799Z,99.90
2019-04-28T16:56:16.198Z,99.90
2019-04-28T16:59:04.551Z,99.90
2019-04-28T17:01:54.606Z,99.90
2019-04-28T17:04:23.999Z,99.90
2019-04-28T17:06:53.376Z,99.90
2019-04-28T17:09:23.627Z,99.90
2019-04-28T17:11:52.998Z,99.90
2019-04-28T17:14:22.386Z,99.90
2019-04-28T17:16:51.758Z,99.90
2019-04-28T17:19:21.147Z,99.90
2019-04-28T17:21:50.519Z,99.90
2019-04-28T17:24:19.916Z,99.90
2019-04-28T17:26:49.411Z,99.90
2019-04-28T17:29:18.808Z,99.90
2019-04-28T17:31:48.180Z,99.90
2019-04-28T17:34:17.570Z,99.90
2019-04-28T17:36:47.206Z,99.90
2019-04-28T17:39:19.595Z,99.90
2019-04-28T17:41:49.072Z,99.90
2019-04-28T17:44:18.539Z,99.90
2019-04-28T17:46:47.912Z,99.90
2019-04-28T17:49:18.875Z,99.90
2019-04-28T17:51:48.247Z,99.90
2019-04-28T17:54:17.643Z,99.90
2019-04-28T17:56:47.019Z,99.90
2019-04-28T17:59:16.410Z,99.90
2019-04-28T18:02:07.739Z,99.90
2019-04-28T18:04:47.874Z,99.90
2019-04-28T18:07:25.063Z,99.90
2019-04-28T18:09:54.460Z,99.90
2019-04-28T18:12:23.878Z,99.90
2019-04-28T18:14:55.732Z,99.90
2019-04-28T18:17:42.755Z,99.90
2019-04-28T18:20:12.643Z,99.90
2019-04-28T18:22:42.047Z,99.90
2019-04-28T18:25:11.859Z,99.90
2019-04-28T18:27:41.226Z,99.90
2019-04-28T18:30:12.284Z,99.90
2019-04-28T18:32:51.426Z,99.90
2019-04-28T18:35:37.710Z,99.90
2019-04-28T18:38:15.686Z,99.90
2019-04-28T18:41:04.028Z,99.90
2019-04-28T18:43:52.338Z,99.90
2019-04-28T18:46:26.158Z,99.90
2019-04-28T18:48:55.527Z,99.90
2019-04-28T18:51:24.928Z,99.90
2019-04-28T18:53:54.300Z,99.90
2019-04-28T18:56:23.694Z,99.90
2019-04-28T18:58:53.059Z,99.90
2019-04-28T19:01:30.014Z,99.90
2019-04-28T19:03:59.366Z,99.90
2019-04-28T19:06:28.762Z,99.90
2019-04-28T19:09:17.075Z,99.90
2019-04-28T19:11:50.076Z,99.90
2019-04-28T19:14:22.824Z,99.90
2019-04-28T19:17:17.258Z,99.90
2019-04-28T19:19:46.635Z,99.90
2019-04-28T19:22:16.029Z,99.90
2019-04-28T19:24:45.423Z,99.90
2019-04-28T19:27:14.807Z,99.90
2019-04-28T19:29:44.111Z,99.90
2019-04-28T19:32:13.523Z,99.90
2019-04-28T19:34:42.887Z,99.90
2019-04-28T19:37:12.278Z,99.90
2019-04-28T19:39:41.651Z,99.90
2019-04-28T19:42:11.043Z,99.90
2019-04-28T19:44:40.424Z,99.90
2019-04-28T19:47:09.831Z,99.90
2019-04-28T19:49:39.213Z,99.90
2019-04-28T19:52:08.604Z,99.90
2019-04-28T19:54:40.146Z,99.90
2019-04-28T19:57:28.488Z,99.90
2019-04-28T20:00:15.463Z,99.90
2019-04-28T20:02:44.857Z,99.90
2019-04-28T20:05:14.236Z,99.90
2019-04-28T20:07:43.623Z,99.90
2019-04-28T20:10:13.111Z,99.90
2019-04-28T20:12:42.490Z,99.90
2019-04-28T20:15:12.074Z,99.90
2019-04-28T20:17:41.467Z,99.90
2019-04-28T20:20:10.839Z,99.90
2019-04-28T20:22:40.244Z,99.90
2019-04-28T20:25:09.843Z,99.90
2019-04-28T20:27:39.240Z,99.90
2019-04-28T20:30:08.935Z,99.90
2019-04-28T20:32:46.027Z,99.90
2019-04-28T20:35:18.427Z,99.90
2019-04-28T20:37:53.491Z,99.90
2019-04-28T20:40:29.626Z,99.90
2019-04-28T20:43:05.215Z,99.90
2019-04-28T20:45:34.598Z,99.90
2019-04-28T20:48:03.983Z,99.90
2019-04-28T20:50:33.358Z,99.90
2019-04-28T20:53:02.746Z,99.90
2019-04-28T20:55:32.124Z,99.90
2019-04-28T20:58:01.521Z,99.90
2019-04-28T21:00:30.884Z,99.90
2019-04-28T21:03:00.327Z,99.90
2019-04-28T21:05:29.699Z,99.90
2019-04-28T21:07:59.104Z,99.90
2019-04-28T21:10:37.752Z,99.90
2019-04-28T21:12:59.510Z,99.90
2019-04-28T21:15:28.889Z,99.90
2019-04-28T21:17:58.262Z,99.90
2019-04-28T21:20:27.673Z,99.90
2019-04-28T21:22:57.052Z,99.90
2019-04-28T21:25:26.466Z,99.90
2019-04-28T21:27:55.858Z,99.90
2019-04-28T21:30:25.268Z,99.90
2019-04-28T21:32:54.653Z,99.90
2019-04-28T21:35:24.047Z,99.90
2019-04-28T21:37:53.470Z,99.90
2019-04-28T21:40:23.175Z,99.90
2019-04-28T21:43:15.540Z,99.90
2019-04-28T21:46:03.891Z,99.90
2019-04-28T21:48:41.696Z,99.90
2019-04-28T21:51:12.107Z,99.90
2019-04-28T21:53:41.792Z,99.90
2019-04-28T21:56:11.193Z,99.90
2019-04-28T21:58:40.570Z,99.90
2019-04-28T22:01:12.248Z,99.90
2019-04-28T22:03:41.638Z,99.90
2019-04-28T22:06:11.044Z,99.90
2019-04-28T22:08:40.419Z,99.90
2019-04-28T22:11:09.834Z,99.90
2019-04-28T22:13:39.216Z,99.90
2019-04-28T22:16:08.971Z,99.90
2019-04-28T22:18:38.338Z,99.90
2019-04-28T22:21:07.727Z,99.90
2019-04-28T22:23:56.072Z,99.90
2019-04-28T22:26:45.237Z,99.90
2019-04-28T22:29:14.735Z,99.90
2019-04-28T22:31:44.406Z,99.90
2019-04-28T22:34:14.864Z,99.90
2019-04-28T22:36:45.364Z,99.90
2019-04-28T22:39:14.891Z,99.90
2019-04-28T22:41:44.380Z,99.90
2019-04-28T22:44:13.746Z,99.90
2019-04-28T22:46:43.132Z,99.90
2019-04-28T22:49:12.506Z,99.90
2019-04-28T22:51:41.898Z,99.90
2019-04-28T22:54:39.190Z,99.90
2019-04-28T22:57:33.716Z,99.90
2019-04-28T23:00:03.606Z,99.90
2019-04-28T23:02:32.998Z,99.90
2019-04-28T23:05:07.645Z,99.90
2019-04-28T23:07:36.999Z,99.90
2019-04-28T23:10:07.223Z,99.90
2019-04-28T23:12:36.605Z,99.90
2019-04-28T23:15:07.857Z,99.90
2019-04-28T23:17:37.251Z,99.90
2019-04-28T23:20:09.239Z,99.90
2019-04-28T23:22:59.722Z,99.90
2019-04-28T23:25:29.239Z,99.90
2019-04-28T23:27:58.615Z,99.90
2019-04-28T23:30:41.094Z,99.90
2019-04-28T23:33:10.463Z,99.90
2019-04-28T23:35:39.875Z,99.90
2019-04-28T23:38:09.248Z,99.90
2019-04-28T23:40:42.723Z,99.90
2019-04-28T23:43:16.959Z,99.90
2019-04-28T23:45:46.351Z,99.90
2019-04-28T23:48:15.727Z,99.90
2019-04-28T23:50:57.240Z,99.90
2019-04-28T23:53:48.330Z,99.90
2019-04-28T23:56:17.735Z,99.90
2019-04-28T23:58:47.107Z,99.90
